YMHB Airport Information

Runway Information
Runway 12 Length 7385 ft width 148 ft
Elevation 12 ft Threshold 0 ft Heading 135
Runway 30 Length 7385 ft Width 148 ft
Elevation 13 ft Threshold 0 ft Heading 315
Airport Frequencies
Type ATIS Name ATIS Frequency 112.7 MHZ
Type CTAF Name CTAF Frequency 118.1 MHZ
Type FSS Name MELBOURNE Frequency 125.55 MHZ
Type TWR Name TWR Frequency 118.1 MHZ
Airport Navaids
Type VOR-DME Name Hobart Frequency 112700 KHZ
Type NDB Name Hobart Frequency 362 KHZ
Type NDB Name Tea Tree Frequency 374 KHZ
Airport Weather Information & NOTAM
ADDS - METARS form results

(2248 UTC 15 April 2021)
Data provider http://aviationweather.gov/metar/data/
 
METAR text: YMHB 152230Z 32012KT 9999 FEW030 SCT047 11/03 Q1019 RF00.0/000.2
Conditions at: YMHB (HOBART/TASMANIA , AU) observed 2230 UTC 15 April 2021
Temperature: 11.0°C (52°F)
Dewpoint: 3.0°C (37°F) [RH = 58%]
Pressure (altimeter): 30.09 inches Hg (1019.0 mb)
Winds: from the NW (320 degrees) at 14 MPH (12 knots; 6.2 m/s)
Visibility: 6 or more miles (10+ km)
Ceiling: at least 12,000 feet AGL
Clouds: few clouds at 3000 feet AGL
scattered clouds at 4700 feet AGL
Weather: no significant weather observed at this time

METAR text: YMHB 152200Z 32009KT 9999 FEW035 10/03 Q1018
Conditions at: YMHB (HOBART/TASMANIA , AU) observed 2200 UTC 15 April 2021
Temperature: 10.0°C (50°F)
Dewpoint: 3.0°C (37°F) [RH = 62%]
Pressure (altimeter): 30.06 inches Hg (1018.0 mb)
Winds: from the NW (320 degrees) at 10 MPH (9 knots; 4.6 m/s)
Visibility: 6 or more miles (10+ km)
Ceiling: at least 12,000 feet AGL
Clouds: few clouds at 3500 feet AGL
Weather: no significant weather observed at this time

Forecast for: YMHB (HOBART/TASMANIA , AU)
Text: TAF YMHB 152004Z 1521/1618 32007KT 9999 FEW035
Forecast period: 2100 to 2200 UTC 15 April 2021
Forecast type: FROM: standard forecast or significant change
Winds: from the NW (320 degrees) at 8 MPH (7 knots; 3.6 m/s)
Visibility: 6 or more miles (10+ km)
Ceiling: at least 12,000 feet AGL
Clouds: few clouds at 3500 feet AGL
Weather: no significant weather forecast for this period
Text: FM152200 30012KT 9999 SCT040
Forecast period: 2200 UTC 15 April 2021 to 0800 UTC 16 April 2021
Forecast type: FROM: standard forecast or significant change
Winds: from the WNW (300 degrees) at 14 MPH (12 knots; 6.2 m/s)
Visibility: 6 or more miles (10+ km)
Ceiling: at least 12,000 feet AGL
Clouds: scattered clouds at 4000 feet AGL
Weather: no significant weather forecast for this period
Text: FM160800 33008KT 9999 FEW030
Forecast period: 0800 to 1800 UTC 16 April 2021
Forecast type: FROM: standard forecast or significant change
Winds: from the NNW (330 degrees) at 9 MPH (8 knots; 4.1 m/s)
Visibility: 6 or more miles (10+ km)
Ceiling: at least 12,000 feet AGL
Clouds: few clouds at 3000 feet AGL
Weather: no significant weather forecast for this period